Time;durP1;ratioP1;P1;durP2;ratioP2;P2;SDS_P1;SDS_P2;PMS_P1;PMS_P2;Temp;Humidity;BMP_temperature;BMP_pressure;BME280_temperature;BME280_humidity;BME280_pressure;Samples;Min_cycle;Max_cycle;Signal;HPM_P1;HPM_P2
2022/11/15 00:02:00;;;;;;;38.45;24.33;;;7.60;99.90;;;;;;5036010;28;20053;-82
2022/11/15 00:04:26;;;;;;;41.55;23.92;;;7.60;99.90;;;;;;5053872;28;20055;-82
2022/11/15 00:06:52;;;;;;;41.75;24.17;;;7.60;99.90;;;;;;5036317;28;20040;-82
2022/11/15 00:09:18;;;;;;;44.92;25.13;;;7.60;99.90;;;;;;5054421;28;20071;-82
2022/11/15 00:11:44;;;;;;;45.50;26.65;;;7.60;99.90;;;;;;5054032;28;20396;-84
2022/11/15 00:14:10;;;;;;;40.90;24.77;;;7.60;99.90;;;;;;5053680;28;20516;-86
2022/11/15 00:16:35;;;;;;;40.75;25.35;;;7.60;99.90;;;;;;5036752;28;20099;-84
2022/11/15 00:19:02;;;;;;;39.38;24.55;;;7.60;99.90;;;;;;5036405;28;20053;-83
2022/11/15 00:21:28;;;;;;;41.25;25.05;;;7.60;99.90;;;;;;5035797;28;20505;-83
2022/11/15 00:23:54;;;;;;;45.30;25.63;;;7.50;99.90;;;;;;5037212;28;20061;-84
2022/11/15 00:26:20;;;;;;;41.10;25.05;;;7.60;99.90;;;;;;5037460;28;20057;-83
2022/11/15 00:28:46;;;;;;;40.50;23.83;;;7.50;99.90;;;;;;5053421;28;20140;-83
2022/11/15 00:31:13;;;;;;;38.08;23.73;;;7.50;99.90;;;;;;5018591;28;20053;-82
2022/11/15 00:33:39;;;;;;;43.40;24.13;;;7.50;99.90;;;;;;5035776;28;20579;-83
2022/11/15 00:36:09;;;;;;;42.55;24.92;;;7.40;99.90;;;;;;5054687;28;20052;-85
2022/11/15 00:38:36;;;;;;;39.90;25.15;;;7.30;99.90;;;;;;5055273;28;20056;-85
2022/11/15 00:41:04;;;;;;;41.03;24.88;;;7.30;99.90;;;;;;5035751;28;20053;-84
2022/11/15 00:43:30;;;;;;;39.22;24.35;;;7.20;99.90;;;;;;5053239;28;20053;-82
2022/11/15 00:45:56;;;;;;;41.85;24.63;;;7.20;99.90;;;;;;5053188;28;20182;-82
2022/11/15 00:48:22;;;;;;;40.78;24.05;;;7.10;99.90;;;;;;5035270;28;20044;-83
2022/11/15 00:50:49;;;;;;;40.47;23.88;;;7.00;99.90;;;;;;5053221;28;20565;-85
2022/11/15 00:53:15;;;;;;;47.80;25.92;;;7.00;99.90;;;;;;5053058;28;20061;-84
2022/11/15 00:55:41;;;;;;;42.63;23.50;;;6.90;99.90;;;;;;5053437;28;20422;-83
2022/11/15 00:58:07;;;;;;;44.22;25.02;;;6.90;99.90;;;;;;5018998;28;20136;-86
2022/11/15 01:00:33;;;;;;;46.72;25.13;;;6.90;99.90;;;;;;5035343;28;20053;-82
2022/11/15 01:03:01;;;;;;;38.65;23.73;;;6.90;99.90;;;;;;5040478;28;20051;-86
2022/11/15 01:05:27;;;;;;;42.58;24.25;;;6.90;99.90;;;;;;5035032;28;20053;-83
2022/11/15 01:07:55;;;;;;;46.30;24.67;;;7.00;99.90;;;;;;5052130;28;20087;-83
2022/11/15 01:10:22;;;;;;;39.63;23.33;;;7.00;99.90;;;;;;5052938;28;20048;-83
2022/11/15 01:12:48;;;;;;;37.95;23.38;;;7.00;99.90;;;;;;5053101;28;20075;-84
2022/11/15 01:15:14;;;;;;;36.95;22.08;;;7.10;99.90;;;;;;5052555;28;20461;-83
2022/11/15 01:17:41;;;;;;;39.33;23.38;;;7.10;99.90;;;;;;5034741;28;20055;-83
2022/11/15 01:20:07;;;;;;;36.78;23.20;;;7.20;99.90;;;;;;5053500;28;20045;-87
2022/11/15 01:22:34;;;;;;;38.08;23.45;;;7.20;99.90;;;;;;5053113;28;20049;-82
2022/11/15 01:25:00;;;;;;;38.55;23.80;;;7.20;99.90;;;;;;5035953;28;20102;-84
2022/11/15 01:27:26;;;;;;;35.83;20.77;;;7.30;99.90;;;;;;5037070;28;20059;-83
2022/11/15 01:29:51;;;;;;;35.17;21.42;;;7.30;99.90;;;;;;5054284;28;20049;-85
2022/11/15 01:32:18;;;;;;;35.75;22.85;;;7.30;99.90;;;;;;5052332;28;20086;-84
2022/11/15 01:34:44;;;;;;;37.42;22.75;;;7.30;99.90;;;;;;5052478;28;20056;-85
2022/11/15 01:37:10;;;;;;;34.30;21.67;;;7.40;99.90;;;;;;5052384;28;20126;-84
2022/11/15 01:39:36;;;;;;;39.47;21.20;;;7.40;99.90;;;;;;5034542;28;20053;-85
2022/11/15 01:42:02;;;;;;;34.72;22.75;;;7.40;99.90;;;;;;5052106;28;20480;-83
2022/11/15 01:44:34;;;;;;;35.42;21.33;;;7.40;99.90;;;;;;5052401;28;20056;-85
2022/11/15 01:47:04;;;;;;;35.38;22.90;;;7.50;99.90;;;;;;5035235;28;20049;-84
2022/11/15 01:49:33;;;;;;;33.67;21.65;;;7.50;99.90;;;;;;5035215;28;20052;-84
2022/11/15 01:52:03;;;;;;;37.42;22.88;;;7.50;99.90;;;;;;5034763;28;20515;-86
2022/11/15 01:54:29;;;;;;;34.45;21.63;;;7.50;99.90;;;;;;5034435;28;20063;-83
2022/11/15 01:57:05;;;;;;;36.75;22.95;;;7.50;99.90;;;;;;5052069;28;20055;-83
2022/11/15 01:59:31;;;;;;;36.72;22.27;;;7.50;99.90;;;;;;5052345;28;20496;-82
2022/11/15 02:01:57;;;;;;;37.55;23.90;;;7.50;99.90;;;;;;5053369;28;20485;-84
2022/11/15 02:04:29;;;;;;;37.53;23.15;;;7.50;99.90;;;;;;5056073;28;20048;-82
2022/11/15 02:06:55;;;;;;;37.63;23.00;;;7.60;99.90;;;;;;5053571;28;20119;-81
2022/11/15 02:09:21;;;;;;;34.60;22.00;;;7.60;99.90;;;;;;5052288;28;20049;-84
2022/11/15 02:11:48;;;;;;;35.17;22.05;;;7.50;99.90;;;;;;5037970;28;20063;-85
2022/11/15 02:14:18;;;;;;;35.65;23.83;;;7.50;99.90;;;;;;5054069;28;20052;-82
2022/11/15 02:17:07;;;;;;;34.42;22.80;;;7.60;99.90;;;;;;5034635;28;20531;-84
2022/11/15 02:19:33;;;;;;;36.58;23.48;;;7.60;99.90;;;;;;5033060;28;20060;-82
2022/11/15 02:22:29;;;;;;;36.85;23.65;;;7.50;99.90;;;;;;5052237;28;20049;-84
2022/11/15 02:25:23;;;;;;;40.03;24.08;;;7.50;99.90;;;;;;5033164;28;20563;-84
2022/11/15 02:28:26;;;;;;;36.10;23.10;;;7.50;99.90;;;;;;5051531;28;20075;-83
2022/11/15 02:31:19;;;;;;;38.42;24.05;;;7.50;99.90;;;;;;5036347;28;20090;-83
2022/11/15 02:34:03;;;;;;;40.55;24.83;;;7.50;99.90;;;;;;5019157;28;20053;-85
2022/11/15 02:36:58;;;;;;;39.85;24.20;;;7.50;99.90;;;;;;5051449;28;20049;-82
2022/11/15 02:39:35;;;;;;;37.70;24.15;;;7.40;99.90;;;;;;5050988;28;20511;-85
2022/11/15 02:43:56;;;;;;;39.88;25.27;;;7.50;99.90;;;;;;5033403;28;20047;-83
2022/11/15 02:45:01;;;;;;;40.08;23.30;;;7.40;99.90;;;;;;5033395;28;20049;-84
2022/11/15 02:47:30;;;;;;;40.47;24.85;;;7.40;99.90;;;;;;5033333;28;20048;-83
2022/11/15 02:50:01;;;;;;;38.67;24.00;;;7.40;99.90;;;;;;5032913;28;20055;-85
2022/11/15 02:52:27;;;;;;;34.78;22.02;;;7.30;99.90;;;;;;5051289;28;20400;-83
2022/11/15 02:55:01;;;;;;;36.50;23.48;;;7.30;99.90;;;;;;5033455;28;20056;-83
2022/11/15 02:57:33;;;;;;;40.58;24.70;;;7.30;99.90;;;;;;5052608;28;20112;-83
2022/11/15 03:00:06;;;;;;;43.25;23.92;;;7.30;99.90;;;;;;5036419;28;20049;-84
2022/11/15 03:02:46;;;;;;;41.00;23.38;;;7.30;99.90;;;;;;5000464;28;20059;-83
2022/11/15 03:05:51;;;;;;;35.22;20.60;;;7.30;99.90;;;;;;5033440;28;20053;-83
2022/11/15 03:08:37;;;;;;;35.67;20.38;;;7.20;99.90;;;;;;5026887;28;20048;-83
2022/11/15 03:11:10;;;;;;;36.35;19.73;;;7.20;99.90;;;;;;5049939;28;20044;-82
2022/11/15 03:13:59;;;;;;;37.88;20.77;;;7.20;99.90;;;;;;5051130;28;20053;-83
2022/11/15 03:16:46;;;;;;;35.00;20.75;;;7.20;99.90;;;;;;5050325;28;20049;-83
2022/11/15 03:19:29;;;;;;;35.17;20.05;;;7.20;99.90;;;;;;5033171;28;20045;-84
2022/11/15 03:21:57;;;;;;;40.60;22.98;;;7.20;99.90;;;;;;5033089;28;20143;-83
2022/11/15 03:24:26;;;;;;;38.75;21.65;;;7.10;99.90;;;;;;5056230;28;20107;-83
2022/11/15 03:26:55;;;;;;;38.58;22.33;;;7.10;99.90;;;;;;5056145;28;20710;-84
2022/11/15 03:29:27;;;;;;;38.80;21.30;;;7.10;99.90;;;;;;5050660;28;20053;-82
2022/11/15 03:32:01;;;;;;;45.03;22.52;;;7.10;99.90;;;;;;5053705;28;20044;-84
2022/11/15 03:34:41;;;;;;;45.30;24.38;;;7.10;99.90;;;;;;5036641;28;20526;-83
2022/11/15 03:37:10;;;;;;;54.30;26.42;;;7.10;99.90;;;;;;5036608;28;20053;-84
2022/11/15 03:39:36;;;;;;;49.22;23.95;;;7.10;99.90;;;;;;5036336;28;20053;-82
2022/11/15 03:42:02;;;;;;;46.90;24.33;;;7.10;99.90;;;;;;5054063;28;20059;-83
2022/11/15 03:44:48;;;;;;;48.20;23.88;;;7.10;99.90;;;;;;5036456;28;20048;-83
2022/11/15 03:47:30;;;;;;;43.03;23.83;;;7.10;99.90;;;;;;5036542;28;20073;-84
2022/11/15 03:50:00;;;;;;;50.85;27.25;;;7.10;99.90;;;;;;5056549;28;20045;-84
2022/11/15 03:52:32;;;;;;;51.70;26.52;;;7.10;99.90;;;;;;5022205;28;20064;-83
2022/11/15 03:55:01;;;;;;;52.63;26.05;;;7.10;99.90;;;;;;5054282;28;20052;-84
2022/11/15 03:57:27;;;;;;;53.70;26.55;;;7.20;99.90;;;;;;5053804;28;20045;-84
2022/11/15 03:59:53;;;;;;;55.13;25.80;;;7.20;99.90;;;;;;5053825;28;20049;-83
2022/11/15 04:02:19;;;;;;;55.25;26.30;;;7.20;99.90;;;;;;5036059;28;20103;-83
2022/11/15 04:04:45;;;;;;;66.50;29.33;;;7.20;99.90;;;;;;5054476;28;20436;-84
2022/11/15 04:07:11;;;;;;;64.00;28.55;;;7.20;99.90;;;;;;5055225;28;20124;-84
2022/11/15 04:12:30;;;;;;;56.22;25.48;;;7.20;99.90;;;;;;5035793;28;20055;-82
2022/11/15 04:15:08;;;;;;;62.28;27.67;;;7.20;99.90;;;;;;5053322;28;20501;-85
2022/11/15 04:17:37;;;;;;;58.38;25.27;;;7.20;99.90;;;;;;5055293;28;20064;-82
2022/11/15 04:25:43;;;;;;;53.05;26.48;;;7.20;99.90;;;;;;5053775;28;20049;-82
2022/11/15 04:28:11;;;;;;;59.88;25.88;;;7.20;99.90;;;;;;5053273;28;20053;-82
2022/11/15 04:30:37;;;;;;;52.97;25.98;;;7.30;99.90;;;;;;5035301;28;20084;-82
2022/11/15 04:33:03;;;;;;;57.03;26.55;;;7.30;99.90;;;;;;5035533;28;20053;-81
2022/11/15 04:35:29;;;;;;;56.08;27.00;;;7.30;99.90;;;;;;5035289;28;20515;-83
2022/11/15 04:37:56;;;;;;;61.78;28.08;;;7.30;99.90;;;;;;5053108;28;20052;-83
2022/11/15 04:40:22;;;;;;;60.50;26.75;;;7.30;99.90;;;;;;5054708;28;20515;-84
2022/11/15 04:42:48;;;;;;;68.40;28.27;;;7.30;99.90;;;;;;5056002;28;20049;-84
2022/11/15 04:45:17;;;;;;;62.75;28.67;;;7.40;99.90;;;;;;5035488;28;20503;-81
2022/11/15 04:47:45;;;;;;;67.45;29.95;;;7.40;99.90;;;;;;5036421;28;20511;-82
2022/11/15 04:50:14;;;;;;;63.92;28.98;;;7.40;99.90;;;;;;5036293;28;20464;-83
2022/11/15 04:52:50;;;;;;;65.50;28.42;;;7.40;99.90;;;;;;5054219;28;20052;-85
2022/11/15 04:55:16;;;;;;;70.85;32.72;;;7.40;99.90;;;;;;5036580;28;20064;-85
2022/11/15 04:57:42;;;;;;;64.47;29.15;;;7.40;99.90;;;;;;5019358;28;20751;-83
2022/11/15 05:00:11;;;;;;;72.38;29.02;;;7.50;99.90;;;;;;5053649;28;20061;-85
2022/11/15 05:05:23;;;;;;;64.88;28.42;;;7.50;99.90;;;;;;5054038;28;20477;-84
2022/11/15 05:07:49;;;;;;;64.65;28.25;;;7.50;99.90;;;;;;5035525;28;20045;-87
2022/11/15 05:10:15;;;;;;;74.40;30.42;;;7.50;99.90;;;;;;5052889;28;20060;-84
2022/11/15 05:12:41;;;;;;;69.20;30.58;;;7.50;99.90;;;;;;5055275;28;20049;-83
2022/11/15 05:15:07;;;;;;;66.80;28.92;;;7.50;99.90;;;;;;5055943;28;20076;-83
2022/11/15 05:17:34;;;;;;;71.90;31.38;;;7.50;99.90;;;;;;5052352;28;20555;-83
2022/11/15 05:20:00;;;;;;;72.50;31.70;;;7.50;99.90;;;;;;5035048;28;20079;-84
2022/11/15 05:22:27;;;;;;;70.25;30.67;;;7.50;99.90;;;;;;5052571;28;20489;-84
2022/11/15 05:24:53;;;;;;;72.60;30.98;;;7.50;99.90;;;;;;5052197;28;20053;-82
2022/11/15 05:27:19;;;;;;;74.53;31.80;;;7.50;99.90;;;;;;5052006;28;20053;-82
2022/11/15 05:29:44;;;;;;;72.82;30.40;;;7.60;99.90;;;;;;5052160;28;20064;-84
2022/11/15 05:32:12;;;;;;;70.30;31.02;;;7.60;99.90;;;;;;5018369;28;20048;-84
2022/11/15 05:34:39;;;;;;;81.32;33.20;;;7.60;99.90;;;;;;5034610;28;20053;-83
2022/11/15 05:37:05;;;;;;;73.38;30.73;;;7.60;99.90;;;;;;5054151;28;20130;-83
2022/11/15 05:39:31;;;;;;;69.75;30.05;;;7.60;99.90;;;;;;5058469;28;20057;-82
2022/11/15 05:42:04;;;;;;;71.20;30.40;;;7.60;99.90;;;;;;5018439;28;20057;-83
2022/11/15 05:44:31;;;;;;;72.93;31.17;;;7.70;99.90;;;;;;5053023;28;20390;-82
2022/11/15 05:46:58;;;;;;;69.35;30.10;;;7.70;99.90;;;;;;5052201;28;20056;-82
2022/11/15 05:49:28;;;;;;;74.97;32.22;;;7.70;99.90;;;;;;5052024;28;20049;-82
2022/11/15 05:51:54;;;;;;;75.65;31.27;;;7.70;99.90;;;;;;5035060;28;20135;-82
2022/11/15 05:54:22;;;;;;;78.80;32.35;;;7.70;99.90;;;;;;5051829;28;20049;-82
2022/11/15 05:56:49;;;;;;;79.53;32.13;;;7.70;99.90;;;;;;5051577;28;20045;-83
2022/11/15 05:59:16;;;;;;;91.40;32.10;;;7.80;99.90;;;;;;5033946;28;20118;-82
2022/11/15 06:01:42;;;;;;;80.25;31.02;;;7.80;99.90;;;;;;5054648;28;20045;-83
2022/11/15 06:04:07;;;;;;;74.93;31.17;;;7.80;99.90;;;;;;5055967;28;20111;-82
2022/11/15 06:06:33;;;;;;;85.60;32.80;;;7.80;99.90;;;;;;5037496;28;20047;-82
2022/11/15 06:08:59;;;;;;;76.70;33.35;;;7.80;99.90;;;;;;5035862;28;20052;-82
2022/11/15 06:11:25;;;;;;;91.05;35.03;;;7.80;99.90;;;;;;5054628;28;20049;-83
2022/11/15 06:13:51;;;;;;;95.55;36.33;;;7.90;99.90;;;;;;5052692;28;20045;-82
2022/11/15 06:16:17;;;;;;;104.28;36.38;;;7.90;99.90;;;;;;5017626;28;20167;-84
2022/11/15 06:18:43;;;;;;;107.00;39.28;;;7.90;99.90;;;;;;5056533;28;20179;-84
2022/11/15 06:21:09;;;;;;;99.45;37.05;;;8.00;99.90;;;;;;5035525;28;20501;-82
2022/11/15 06:23:35;;;;;;;104.38;39.03;;;8.00;99.90;;;;;;5033496;28;20527;-83
2022/11/15 06:26:02;;;;;;;109.22;37.55;;;8.00;99.90;;;;;;5033625;28;20049;-84
2022/11/15 06:28:30;;;;;;;113.55;41.60;;;8.00;99.90;;;;;;5051618;28;20049;-81
2022/11/15 06:30:56;;;;;;;124.60;40.10;;;8.00;99.90;;;;;;5051150;28;20095;-83
2022/11/15 06:33:22;;;;;;;117.63;39.17;;;8.00;99.90;;;;;;5033804;28;20154;-81
2022/11/15 06:35:48;;;;;;;100.72;36.50;;;8.00;99.90;;;;;;5052040;28;20635;-82
2022/11/15 06:38:14;;;;;;;134.23;45.17;;;8.10;99.90;;;;;;5052050;28;20378;-85
2022/11/15 06:40:40;;;;;;;131.82;41.60;;;8.10;99.90;;;;;;5033361;28;20083;-84
2022/11/15 06:43:06;;;;;;;149.48;44.78;;;8.10;99.90;;;;;;5052253;28;20484;-82
2022/11/15 06:45:33;;;;;;;137.27;44.45;;;8.20;99.90;;;;;;5051290;28;20049;-83
2022/11/15 06:47:59;;;;;;;151.30;45.60;;;8.20;99.90;;;;;;5033206;28;20451;-83
2022/11/15 06:50:25;;;;;;;160.13;48.05;;;8.20;99.90;;;;;;5050900;28;20056;-85
2022/11/15 06:52:51;;;;;;;170.75;50.70;;;8.30;99.90;;;;;;5036913;28;20053;-82
2022/11/15 06:55:17;;;;;;;170.70;51.45;;;8.30;99.90;;;;;;5051560;28;20136;-82
2022/11/15 06:57:51;;;;;;;183.13;54.97;;;8.30;99.90;;;;;;5051029;28;20128;-86
2022/11/15 07:00:19;;;;;;;170.00;49.42;;;8.40;99.90;;;;;;5035288;28;20092;-84
2022/11/15 07:02:45;;;;;;;189.52;53.08;;;8.40;99.90;;;;;;5033749;28;20147;-83
2022/11/15 07:05:12;;;;;;;177.50;52.20;;;8.40;99.90;;;;;;5050407;28;20084;-84
2022/11/15 07:07:38;;;;;;;177.43;52.28;;;8.50;99.90;;;;;;5051342;28;20057;-83
2022/11/15 07:10:04;;;;;;;196.60;56.10;;;8.50;99.90;;;;;;5032578;28;20135;-83
2022/11/15 07:12:30;;;;;;;178.20;51.60;;;8.50;99.90;;;;;;5051546;28;20060;-85
2022/11/15 07:14:56;;;;;;;154.35;51.35;;;8.60;99.90;;;;;;5034956;28;20487;-85
2022/11/15 07:17:22;;;;;;;179.38;53.67;;;8.60;99.90;;;;;;5054913;28;20044;-83
2022/11/15 07:19:48;;;;;;;156.77;50.28;;;8.60;99.90;;;;;;5058523;28;20393;-83
2022/11/15 07:22:14;;;;;;;162.65;52.90;;;8.60;99.90;;;;;;5034111;28;20756;-83
2022/11/15 07:24:40;;;;;;;157.07;53.17;;;8.70;99.90;;;;;;5052129;28;20488;-82
2022/11/15 07:27:06;;;;;;;165.60;51.97;;;8.70;99.90;;;;;;5035146;28;20134;-82
2022/11/15 07:29:32;;;;;;;160.63;53.53;;;8.80;99.90;;;;;;5033108;28;20060;-82
2022/11/15 07:31:58;;;;;;;180.52;54.38;;;8.80;99.90;;;;;;5057333;28;20057;-83
2022/11/15 07:34:24;;;;;;;167.18;54.22;;;8.80;99.90;;;;;;5054301;28;20057;-82
2022/11/15 07:36:50;;;;;;;151.10;51.58;;;8.90;99.90;;;;;;5040572;28;20055;-82
2022/11/15 07:39:16;;;;;;;177.07;54.65;;;8.90;99.90;;;;;;5025432;28;20045;-85
2022/11/15 07:41:43;;;;;;;169.82;54.63;;;9.00;99.90;;;;;;5039909;28;20081;-83
2022/11/15 07:44:09;;;;;;;150.35;51.97;;;9.00;99.90;;;;;;5050654;28;20053;-82
2022/11/15 07:46:35;;;;;;;159.75;55.20;;;9.00;99.90;;;;;;5050800;28;20051;-84
2022/11/15 07:49:01;;;;;;;141.48;53.13;;;9.10;99.90;;;;;;5051570;28;20076;-85
2022/11/15 07:51:26;;;;;;;165.95;55.10;;;9.10;99.90;;;;;;5050845;28;20110;-83
2022/11/15 07:53:52;;;;;;;155.43;53.63;;;9.20;99.90;;;;;;5050751;28;20049;-82
2022/11/15 07:56:20;;;;;;;149.02;52.15;;;9.20;99.90;;;;;;5033500;28;20056;-84
2022/11/15 07:58:46;;;;;;;141.80;49.97;;;9.30;99.90;;;;;;5050610;28;20095;-86
2022/11/15 08:01:13;;;;;;;152.43;53.10;;;9.30;99.90;;;;;;5050707;28;20075;-86
2022/11/15 08:03:39;;;;;;;133.43;50.63;;;9.40;99.90;;;;;;5050518;28;20144;-85
2022/11/15 08:06:05;;;;;;;131.90;50.53;;;9.40;99.90;;;;;;5050753;28;20060;-86
2022/11/15 08:08:34;;;;;;;118.93;49.25;;;9.50;99.90;;;;;;5016724;28;20087;-87
2022/11/15 08:11:00;;;;;;;122.18;45.38;;;9.50;99.90;;;;;;5032285;28;20551;-86
2022/11/15 08:13:27;;;;;;;121.40;47.30;;;9.60;99.90;;;;;;5051437;28;20045;-87
2022/11/15 08:16:01;;;;;;;116.95;46.40;;;9.60;99.90;;;;;;5049867;28;20099;-83
2022/11/15 08:18:27;;;;;;;119.85;46.63;;;9.60;99.90;;;;;;5035141;28;20052;-84
2022/11/15 08:20:52;;;;;;;117.30;47.10;;;9.70;99.90;;;;;;5035609;28;20161;-83
2022/11/15 08:23:21;;;;;;;115.10;45.53;;;9.80;99.90;;;;;;5036061;28;20091;-85
2022/11/15 08:25:47;;;;;;;114.55;46.65;;;9.80;99.90;;;;;;5055599;28;20087;-84
2022/11/15 08:28:16;;;;;;;100.18;43.83;;;9.80;99.90;;;;;;5021240;28;20086;-85
2022/11/15 08:30:42;;;;;;;106.68;44.17;;;9.90;99.90;;;;;;5037098;28;20053;-85
2022/11/15 08:33:13;;;;;;;92.60;42.42;;;9.90;99.90;;;;;;5054026;28;20049;-81
2022/11/15 08:35:41;;;;;;;101.35;42.03;;;9.90;99.90;;;;;;5035050;28;20048;-85
2022/11/15 08:38:07;;;;;;;87.82;40.28;;;9.90;99.90;;;;;;5035269;28;20139;-82
2022/11/15 08:40:33;;;;;;;90.93;41.40;;;10.00;99.90;;;;;;5053451;28;20227;-85
2022/11/15 08:43:02;;;;;;;89.28;39.40;;;10.00;99.90;;;;;;5053423;28;20373;-83
2022/11/15 08:45:28;;;;;;;87.82;38.53;;;10.10;99.90;;;;;;5053011;28;20068;-86
2022/11/15 08:47:55;;;;;;;86.00;40.03;;;10.10;99.90;;;;;;5035192;28;20064;-85
2022/11/15 08:50:21;;;;;;;80.68;39.13;;;10.20;99.90;;;;;;5053925;28;20383;-84
2022/11/15 08:52:48;;;;;;;80.05;35.97;;;10.20;99.90;;;;;;5052589;28;20053;-85
2022/11/15 08:55:14;;;;;;;85.43;37.50;;;10.20;99.90;;;;;;5034928;28;20515;-84
2022/11/15 08:57:40;;;;;;;81.20;37.75;;;10.30;99.90;;;;;;5034956;28;20051;-84
2022/11/15 09:00:06;;;;;;;74.35;37.53;;;10.30;99.90;;;;;;5035165;28;20048;-83
2022/11/15 09:02:32;;;;;;;73.32;35.95;;;10.40;99.90;;;;;;5035105;28;20045;-85
2022/11/15 09:04:58;;;;;;;67.75;35.70;;;10.40;99.90;;;;;;5053704;28;20131;-83
2022/11/15 09:07:24;;;;;;;64.95;34.45;;;10.50;99.90;;;;;;5035237;28;20041;-84
2022/11/15 09:09:50;;;;;;;69.47;33.25;;;10.50;99.90;;;;;;5035007;28;20053;-82
2022/11/15 09:12:15;;;;;;;66.03;34.47;;;10.60;99.90;;;;;;5035747;28;20403;-84
2022/11/15 09:14:41;;;;;;;62.92;33.20;;;10.60;99.90;;;;;;5052833;28;20053;-83
2022/11/15 09:17:08;;;;;;;60.97;31.63;;;10.60;99.90;;;;;;5052808;28;20118;-82
2022/11/15 09:19:34;;;;;;;64.82;32.35;;;10.70;99.90;;;;;;5052923;28;20045;-83
2022/11/15 09:22:00;;;;;;;57.13;31.45;;;10.70;99.90;;;;;;5052574;28;20053;-85
2022/11/15 09:24:26;;;;;;;63.45;32.13;;;10.70;99.90;;;;;;5019132;28;20076;-82
2022/11/15 09:26:52;;;;;;;53.70;30.23;;;10.80;99.90;;;;;;5052284;28;20137;-81
2022/11/15 09:29:18;;;;;;;59.53;30.55;;;10.80;99.90;;;;;;5052237;28;20145;-85
2022/11/15 09:31:44;;;;;;;54.03;30.70;;;10.80;99.90;;;;;;5055578;28;20049;-82
2022/11/15 09:34:11;;;;;;;54.80;29.40;;;10.80;99.90;;;;;;5055363;28;20099;-81
2022/11/15 09:36:37;;;;;;;49.60;29.17;;;10.80;99.90;;;;;;5034608;28;20084;-85
2022/11/15 09:39:03;;;;;;;55.95;27.63;;;10.90;99.90;;;;;;5052871;28;20045;-81
2022/11/15 09:41:56;;;;;;;47.00;28.40;;;10.90;99.90;;;;;;5052843;28;20405;-85
2022/11/15 09:44:25;;;;;;;51.47;26.90;;;11.00;99.90;;;;;;5034450;28;20061;-85
2022/11/15 09:47:03;;;;;;;43.70;26.42;;;11.00;99.90;;;;;;5052225;28;20041;-85
2022/11/15 09:49:30;;;;;;;48.70;26.00;;;11.00;99.90;;;;;;5052085;28;20568;-82
2022/11/15 09:51:57;;;;;;;44.60;27.33;;;11.00;99.90;;;;;;5053534;28;20045;-84
2022/11/15 09:54:30;;;;;;;62.33;28.20;;;11.10;99.90;;;;;;5052431;28;20041;-85
2022/11/15 09:57:34;;;;;;;42.42;25.55;;;11.10;99.90;;;;;;5052882;28;20052;-81
2022/11/15 10:00:10;;;;;;;42.75;24.75;;;11.10;99.90;;;;;;5051685;28;20048;-84
2022/11/15 10:03:00;;;;;;;49.20;25.58;;;11.20;99.90;;;;;;5051506;28;20110;-82
2022/11/15 10:05:28;;;;;;;39.25;24.05;;;11.20;99.90;;;;;;5034436;28;20049;-85
2022/11/15 10:08:25;;;;;;;40.25;23.58;;;11.30;99.90;;;;;;5051483;28;20053;-84
2022/11/15 10:11:00;;;;;;;42.92;25.05;;;11.50;99.90;;;;;;5052130;28;20067;-82
2022/11/15 10:13:33;;;;;;;37.30;23.85;;;11.70;99.90;;;;;;5052618;28;20049;-83
2022/11/15 10:16:37;;;;;;;41.20;22.98;;;11.70;99.90;;;;;;5034475;28;20057;-82
2022/11/15 10:19:32;;;;;;;35.28;23.30;;;11.60;99.90;;;;;;5034295;28;20064;-83
2022/11/15 10:22:16;;;;;;;;;;;11.60;99.90;;;;;;5052046;28;20053;-84
2022/11/15 10:24:44;;;;;;;45.03;23.98;;;11.60;99.90;;;;;;5034268;28;19921;-83
2022/11/15 10:27:16;;;;;;;38.00;21.77;;;11.60;99.90;;;;;;5034061;28;20055;-82
2022/11/15 10:29:50;;;;;;;40.88;22.88;;;11.70;99.90;;;;;;5051747;28;20049;-82
2022/11/15 10:32:21;;;;;;;39.33;22.55;;;11.80;99.90;;;;;;5051324;28;20096;-82
2022/11/15 10:34:49;;;;;;;37.15;22.40;;;11.70;99.90;;;;;;5034140;28;20377;-81
2022/11/15 10:37:26;;;;;;;37.20;21.95;;;11.70;99.90;;;;;;5052797;28;20485;-85
2022/11/15 10:40:25;;;;;;;36.97;21.90;;;11.70;99.90;;;;;;5051412;28;20397;-84
2022/11/15 10:43:09;;;;;;;37.13;22.10;;;11.70;99.90;;;;;;5007142;28;20136;-83
2022/11/15 10:45:36;;;;;;;45.05;24.08;;;11.70;99.90;;;;;;5051344;28;20052;-83
2022/11/15 10:48:14;;;;;;;35.55;23.17;;;11.80;99.90;;;;;;5051500;28;20045;-83
2022/11/15 10:50:45;;;;;;;32.42;21.65;;;11.90;99.90;;;;;;5033958;28;20041;-82
2022/11/15 10:53:23;;;;;;;37.30;21.23;;;11.90;99.90;;;;;;5054690;28;20509;-83
2022/11/15 10:55:53;;;;;;;33.70;20.40;;;11.90;99.90;;;;;;5033236;28;20114;-81
2022/11/15 10:58:39;;;;;;;31.73;20.50;;;11.90;99.90;;;;;;5032748;28;20550;-85
2022/11/15 11:01:11;;;;;;;31.80;18.77;;;11.90;99.90;;;;;;5009252;28;20471;-83
2022/11/15 11:03:39;;;;;;;33.33;20.98;;;11.90;99.90;;;;;;5050840;28;20059;-81
2022/11/15 11:06:17;;;;;;;32.85;18.60;;;11.90;99.90;;;;;;5017913;28;20053;-82
2022/11/15 11:09:03;;;;;;;27.10;17.52;;;12.00;99.90;;;;;;5035248;28;20048;-85
2022/11/15 11:11:46;;;;;;;35.28;19.02;;;12.10;99.90;;;;;;5053490;28;20064;-82
2022/11/15 11:14:27;;;;;;;29.67;18.17;;;12.10;99.90;;;;;;5051972;28;20132;-85
2022/11/15 11:17:29;;;;;;;25.73;17.08;;;12.10;99.90;;;;;;5033406;28;20061;-83
2022/11/15 11:20:20;;;;;;;36.15;18.30;;;12.20;99.90;;;;;;5051236;28;20504;-83
2022/11/15 11:23:06;;;;;;;28.13;17.13;;;12.10;99.90;;;;;;5052285;28;20500;-81
2022/11/15 11:25:51;;;;;;;36.08;18.90;;;12.10;99.90;;;;;;4993172;28;20497;-82
2022/11/15 11:28:28;;;;;;;35.80;18.90;;;12.10;99.90;;;;;;5053136;28;20056;-81
2022/11/15 11:31:28;;;;;;;26.90;17.63;;;12.10;99.90;;;;;;5051508;28;20046;-86
2022/11/15 11:34:25;;;;;;;27.52;17.83;;;12.10;99.90;;;;;;5054172;28;20041;-82
2022/11/15 11:36:59;;;;;;;26.20;16.40;;;12.10;99.90;;;;;;5035852;28;20060;-86
2022/11/15 11:39:50;;;;;;;28.13;16.55;;;12.20;99.90;;;;;;5033463;28;20052;-82
2022/11/15 11:42:19;;;;;;;23.05;15.13;;;12.20;99.90;;;;;;5033156;28;20053;-81
2022/11/15 11:45:06;;;;;;;24.88;15.02;;;12.20;99.90;;;;;;5052427;28;20048;-81
2022/11/15 11:47:44;;;;;;;23.55;13.55;;;12.20;99.90;;;;;;5053906;28;20560;-83
2022/11/15 11:50:23;;;;;;;22.50;13.73;;;12.30;99.90;;;;;;5055194;28;20045;-82
2022/11/15 11:53:10;;;;;;;27.58;13.85;;;12.30;99.90;;;;;;5057040;28;20128;-82
2022/11/15 11:55:57;;;;;;;30.55;13.73;;;12.30;99.90;;;;;;5038652;28;20493;-83
2022/11/15 11:58:35;;;;;;;19.13;11.43;;;12.30;99.90;;;;;;5038691;28;20057;-81
2022/11/15 12:01:24;;;;;;;18.40;10.05;;;12.30;99.90;;;;;;5062000;28;20485;-87
2022/11/15 12:03:56;;;;;;;21.92;10.43;;;12.30;99.90;;;;;;5040228;28;20497;-84
2022/11/15 12:06:37;;;;;;;18.42;8.20;;;12.20;99.90;;;;;;5058618;28;20045;-82
2022/11/15 12:09:27;;;;;;;11.80;7.30;;;12.20;99.90;;;;;;5038769;28;20459;-85
2022/11/15 12:12:18;;;;;;;16.63;8.52;;;12.20;99.90;;;;;;5061531;28;20095;-83
2022/11/15 12:14:58;;;;;;;17.30;8.65;;;12.20;99.90;;;;;;5040000;28;20052;-83
2022/11/15 12:17:27;;;;;;;13.00;6.75;;;12.20;99.90;;;;;;5040649;28;20060;-86
2022/11/15 12:19:57;;;;;;;14.77;6.38;;;12.20;99.90;;;;;;5020111;28;20056;-83
2022/11/15 12:22:41;;;;;;;14.93;7.75;;;12.20;99.90;;;;;;5036153;28;20161;-83
2022/11/15 12:25:13;;;;;;;13.88;6.68;;;12.20;99.90;;;;;;5053936;28;20072;-83
2022/11/15 12:27:48;;;;;;;12.27;6.85;;;12.20;99.90;;;;;;5053707;28;20049;-84
2022/11/15 12:30:18;;;;;;;14.45;7.10;;;12.20;99.90;;;;;;5054790;28;20064;-83
2022/11/15 12:33:28;;;;;;;12.52;6.50;;;12.30;99.90;;;;;;5037110;28;20087;-82
2022/11/15 12:36:00;;;;;;;14.25;6.45;;;12.40;99.90;;;;;;5015648;28;20099;-83
2022/11/15 12:39:00;;;;;;;12.98;6.75;;;12.40;99.90;;;;;;5053672;28;20053;-82
2022/11/15 12:41:34;;;;;;;11.93;6.30;;;12.60;99.90;;;;;;5036069;28;20103;-82
2022/11/15 12:44:01;;;;;;;14.02;6.35;;;13.00;99.90;;;;;;5036239;28;20059;-82
2022/11/15 12:46:30;;;;;;;15.05;6.72;;;13.90;99.90;;;;;;5035399;28;20084;-84
2022/11/15 12:49:05;;;;;;;13.02;5.50;;;14.80;99.90;;;;;;5055038;28;20591;-82
2022/11/15 12:51:43;;;;;;;11.73;6.40;;;15.40;99.90;;;;;;5055991;28;20060;-88
2022/11/15 12:54:21;;;;;;;9.90;4.68;;;15.80;99.90;;;;;;5056733;28;20049;-84
2022/11/15 12:57:03;;;;;;;9.25;3.88;;;16.10;99.90;;;;;;5053017;28;20481;-84
2022/11/15 12:59:47;;;;;;;10.68;4.30;;;16.10;99.90;;;;;;5035712;28;20064;-81
2022/11/15 13:02:27;;;;;;;10.83;4.23;;;15.90;99.90;;;;;;5034604;28;20056;-86
2022/11/15 13:05:22;;;;;;;7.45;3.92;;;15.70;99.90;;;;;;5053771;28;20057;-81
2022/11/15 13:07:47;;;;;;;6.65;3.63;;;15.60;99.90;;;;;;5034774;28;20799;-87